sensor_id;sensor_type;location;lat;lon;timestamp;P1;durP1;ratioP1;P2;durP2;ratioP2
22967;SDS011;11650;48.106;-1.696;2023-02-18T00:00:05;6.57;;;4.47;;
22967;SDS011;11650;48.106;-1.696;2023-02-18T00:02:32;8.13;;;4.23;;
22967;SDS011;11650;48.106;-1.696;2023-02-18T00:04:58;6.50;;;3.43;;
22967;SDS011;11650;48.106;-1.696;2023-02-18T00:07:24;5.40;;;3.73;;
22967;SDS011;11650;48.106;-1.696;2023-02-18T00:09:49;6.17;;;3.30;;
22967;SDS011;11650;48.106;-1.696;2023-02-18T00:12:15;4.47;;;3.10;;
22967;SDS011;11650;48.106;-1.696;2023-02-18T00:14:41;5.63;;;2.60;;
22967;SDS011;11650;48.106;-1.696;2023-02-18T00:17:06;4.87;;;2.57;;
22967;SDS011;11650;48.106;-1.696;2023-02-18T00:19:32;6.10;;;2.60;;
22967;SDS011;11650;48.106;-1.696;2023-02-18T00:21:58;6.33;;;2.40;;
22967;SDS011;11650;48.106;-1.696;2023-02-18T00:24:23;5.17;;;2.63;;
22967;SDS011;11650;48.106;-1.696;2023-02-18T00:26:52;5.40;;;2.27;;
22967;SDS011;11650;48.106;-1.696;2023-02-18T00:29:17;5.30;;;2.30;;
22967;SDS011;11650;48.106;-1.696;2023-02-18T00:31:44;3.80;;;2.00;;
22967;SDS011;11650;48.106;-1.696;2023-02-18T00:34:10;3.57;;;2.03;;
22967;SDS011;11650;48.106;-1.696;2023-02-18T00:36:36;6.27;;;2.37;;
22967;SDS011;11650;48.106;-1.696;2023-02-18T00:39:04;3.87;;;2.03;;
22967;SDS011;11650;48.106;-1.696;2023-02-18T00:41:32;3.47;;;1.77;;
22967;SDS011;11650;48.106;-1.696;2023-02-18T00:43:58;6.87;;;2.00;;
22967;SDS011;11650;48.106;-1.696;2023-02-18T00:46:24;4.80;;;2.00;;
22967;SDS011;11650;48.106;-1.696;2023-02-18T00:48:51;7.63;;;2.47;;
22967;SDS011;11650;48.106;-1.696;2023-02-18T00:51:17;7.47;;;2.40;;
22967;SDS011;11650;48.106;-1.696;2023-02-18T00:53:43;4.93;;;2.00;;
22967;SDS011;11650;48.106;-1.696;2023-02-18T00:56:08;4.70;;;2.20;;
22967;SDS011;11650;48.106;-1.696;2023-02-18T00:58:34;9.83;;;2.30;;
22967;SDS011;11650;48.106;-1.696;2023-02-18T01:01:01;4.83;;;2.30;;
22967;SDS011;11650;48.106;-1.696;2023-02-18T01:03:27;5.80;;;2.23;;
22967;SDS011;11650;48.106;-1.696;2023-02-18T01:05:52;3.97;;;2.00;;
22967;SDS011;11650;48.106;-1.696;2023-02-18T01:08:18;5.73;;;2.17;;
22967;SDS011;11650;48.106;-1.696;2023-02-18T01:10:45;5.03;;;2.03;;
22967;SDS011;11650;48.106;-1.696;2023-02-18T01:13:12;9.97;;;2.60;;
22967;SDS011;11650;48.106;-1.696;2023-02-18T01:15:39;7.87;;;2.30;;
22967;SDS011;11650;48.106;-1.696;2023-02-18T01:18:06;7.33;;;2.90;;
22967;SDS011;11650;48.106;-1.696;2023-02-18T01:20:33;9.63;;;2.40;;
22967;SDS011;11650;48.106;-1.696;2023-02-18T01:22:59;8.00;;;2.10;;
22967;SDS011;11650;48.106;-1.696;2023-02-18T01:25:25;6.93;;;2.50;;
22967;SDS011;11650;48.106;-1.696;2023-02-18T01:27:51;9.33;;;2.30;;
22967;SDS011;11650;48.106;-1.696;2023-02-18T01:30:17;7.33;;;2.10;;
22967;SDS011;11650;48.106;-1.696;2023-02-18T01:32:44;12.10;;;2.50;;
22967;SDS011;11650;48.106;-1.696;2023-02-18T01:35:10;8.73;;;2.70;;
22967;SDS011;11650;48.106;-1.696;2023-02-18T01:37:38;5.17;;;2.50;;
22967;SDS011;11650;48.106;-1.696;2023-02-18T01:40:04;8.07;;;2.37;;
22967;SDS011;11650;48.106;-1.696;2023-02-18T01:42:31;7.43;;;2.30;;
22967;SDS011;11650;48.106;-1.696;2023-02-18T01:48:11;9.90;;;2.50;;
22967;SDS011;11650;48.106;-1.696;2023-02-18T01:50:42;5.47;;;2.27;;
22967;SDS011;11650;48.106;-1.696;2023-02-18T01:53:13;8.60;;;2.50;;
22967;SDS011;11650;48.106;-1.696;2023-02-18T01:55:42;8.43;;;2.73;;
22967;SDS011;11650;48.106;-1.696;2023-02-18T01:58:08;11.30;;;2.50;;
22967;SDS011;11650;48.106;-1.696;2023-02-18T02:00:37;6.50;;;2.50;;
22967;SDS011;11650;48.106;-1.696;2023-02-18T02:03:02;5.20;;;2.40;;
22967;SDS011;11650;48.106;-1.696;2023-02-18T02:05:30;7.93;;;2.57;;
22967;SDS011;11650;48.106;-1.696;2023-02-18T02:07:56;7.20;;;2.57;;
22967;SDS011;11650;48.106;-1.696;2023-02-18T02:10:23;7.70;;;2.50;;
22967;SDS011;11650;48.106;-1.696;2023-02-18T02:15:37;8.43;;;2.37;;
22967;SDS011;11650;48.106;-1.696;2023-02-18T02:29:23;8.73;;;2.33;;
22967;SDS011;11650;48.106;-1.696;2023-02-18T02:45:37;9.70;;;2.60;;
22967;SDS011;11650;48.106;-1.696;2023-02-18T02:53:49;6.00;;;2.17;;
22967;SDS011;11650;48.106;-1.696;2023-02-18T02:56:15;6.50;;;2.37;;
22967;SDS011;11650;48.106;-1.696;2023-02-18T02:58:43;8.17;;;2.27;;
22967;SDS011;11650;48.106;-1.696;2023-02-18T03:12:02;7.57;;;2.30;;
22967;SDS011;11650;48.106;-1.696;2023-02-18T03:15:17;9.77;;;2.10;;
22967;SDS011;11650;48.106;-1.696;2023-02-18T03:17:59;9.20;;;2.47;;
22967;SDS011;11650;48.106;-1.696;2023-02-18T03:20:38;6.37;;;2.03;;
22967;SDS011;11650;48.106;-1.696;2023-02-18T03:23:19;5.47;;;1.90;;
22967;SDS011;11650;48.106;-1.696;2023-02-18T03:25:52;8.07;;;2.23;;
22967;SDS011;11650;48.106;-1.696;2023-02-18T03:28:20;8.93;;;2.40;;
22967;SDS011;11650;48.106;-1.696;2023-02-18T03:30:49;9.83;;;1.87;;
22967;SDS011;11650;48.106;-1.696;2023-02-18T03:33:25;8.07;;;2.30;;
22967;SDS011;11650;48.106;-1.696;2023-02-18T03:35:57;8.27;;;2.47;;
22967;SDS011;11650;48.106;-1.696;2023-02-18T03:38:25;8.57;;;2.00;;
22967;SDS011;11650;48.106;-1.696;2023-02-18T03:41:12;8.27;;;2.67;;
22967;SDS011;11650;48.106;-1.696;2023-02-18T03:43:57;7.33;;;2.30;;
22967;SDS011;11650;48.106;-1.696;2023-02-18T03:46:26;5.70;;;2.30;;
22967;SDS011;11650;48.106;-1.696;2023-02-18T03:48:52;9.67;;;2.67;;
22967;SDS011;11650;48.106;-1.696;2023-02-18T03:51:18;9.17;;;2.47;;
22967;SDS011;11650;48.106;-1.696;2023-02-18T03:53:44;8.93;;;2.30;;
22967;SDS011;11650;48.106;-1.696;2023-02-18T03:56:10;8.23;;;2.40;;
22967;SDS011;11650;48.106;-1.696;2023-02-18T03:58:36;5.63;;;2.50;;
22967;SDS011;11650;48.106;-1.696;2023-02-18T04:01:02;6.73;;;2.23;;
22967;SDS011;11650;48.106;-1.696;2023-02-18T04:03:29;5.23;;;2.30;;
22967;SDS011;11650;48.106;-1.696;2023-02-18T04:05:54;6.80;;;2.10;;
22967;SDS011;11650;48.106;-1.696;2023-02-18T04:08:20;8.40;;;2.10;;
22967;SDS011;11650;48.106;-1.696;2023-02-18T04:10:46;9.77;;;2.30;;
22967;SDS011;11650;48.106;-1.696;2023-02-18T04:13:12;6.63;;;2.43;;
22967;SDS011;11650;48.106;-1.696;2023-02-18T04:15:37;6.73;;;2.30;;
22967;SDS011;11650;48.106;-1.696;2023-02-18T04:18:03;5.67;;;2.17;;
22967;SDS011;11650;48.106;-1.696;2023-02-18T04:20:29;7.90;;;2.50;;
22967;SDS011;11650;48.106;-1.696;2023-02-18T04:22:55;9.27;;;2.23;;
22967;SDS011;11650;48.106;-1.696;2023-02-18T04:25:20;11.77;;;2.77;;
22967;SDS011;11650;48.106;-1.696;2023-02-18T04:27:46;6.60;;;2.20;;
22967;SDS011;11650;48.106;-1.696;2023-02-18T04:30:12;9.97;;;2.50;;
22967;SDS011;11650;48.106;-1.696;2023-02-18T04:32:38;8.53;;;2.27;;
22967;SDS011;11650;48.106;-1.696;2023-02-18T04:35:04;7.40;;;1.93;;
22967;SDS011;11650;48.106;-1.696;2023-02-18T04:37:30;3.90;;;1.83;;
22967;SDS011;11650;48.106;-1.696;2023-02-18T04:39:55;7.20;;;2.27;;
22967;SDS011;11650;48.106;-1.696;2023-02-18T04:42:21;6.83;;;2.23;;
22967;SDS011;11650;48.106;-1.696;2023-02-18T04:44:47;8.10;;;2.10;;
22967;SDS011;11650;48.106;-1.696;2023-02-18T04:47:13;5.83;;;2.07;;
22967;SDS011;11650;48.106;-1.696;2023-02-18T04:49:38;5.13;;;1.80;;
22967;SDS011;11650;48.106;-1.696;2023-02-18T04:52:04;5.57;;;2.10;;
22967;SDS011;11650;48.106;-1.696;2023-02-18T04:54:30;5.63;;;2.17;;
22967;SDS011;11650;48.106;-1.696;2023-02-18T04:56:55;9.00;;;2.20;;
22967;SDS011;11650;48.106;-1.696;2023-02-18T04:59:21;7.33;;;2.53;;
22967;SDS011;11650;48.106;-1.696;2023-02-18T05:01:47;8.13;;;2.27;;
22967;SDS011;11650;48.106;-1.696;2023-02-18T05:04:13;5.50;;;2.20;;
22967;SDS011;11650;48.106;-1.696;2023-02-18T05:06:38;9.53;;;2.43;;
22967;SDS011;11650;48.106;-1.696;2023-02-18T05:09:06;7.20;;;2.60;;
22967;SDS011;11650;48.106;-1.696;2023-02-18T05:11:32;4.80;;;2.60;;
22967;SDS011;11650;48.106;-1.696;2023-02-18T05:13:58;5.47;;;2.50;;
22967;SDS011;11650;48.106;-1.696;2023-02-18T05:16:23;9.60;;;3.17;;
22967;SDS011;11650;48.106;-1.696;2023-02-18T05:18:49;9.33;;;3.47;;
22967;SDS011;11650;48.106;-1.696;2023-02-18T05:21:15;8.53;;;2.83;;
22967;SDS011;11650;48.106;-1.696;2023-02-18T05:23:40;8.37;;;2.60;;
22967;SDS011;11650;48.106;-1.696;2023-02-18T05:26:06;6.63;;;2.60;;
22967;SDS011;11650;48.106;-1.696;2023-02-18T05:28:32;5.20;;;2.70;;
22967;SDS011;11650;48.106;-1.696;2023-02-18T05:30:57;9.80;;;3.17;;
22967;SDS011;11650;48.106;-1.696;2023-02-18T05:33:23;9.93;;;3.20;;
22967;SDS011;11650;48.106;-1.696;2023-02-18T05:35:49;6.40;;;2.80;;
22967;SDS011;11650;48.106;-1.696;2023-02-18T05:38:15;7.47;;;3.00;;
22967;SDS011;11650;48.106;-1.696;2023-02-18T05:40:40;7.23;;;2.70;;
22967;SDS011;11650;48.106;-1.696;2023-02-18T05:43:06;6.37;;;2.80;;
22967;SDS011;11650;48.106;-1.696;2023-02-18T05:45:31;9.97;;;2.80;;
22967;SDS011;11650;48.106;-1.696;2023-02-18T05:47:57;6.70;;;2.93;;
22967;SDS011;11650;48.106;-1.696;2023-02-18T05:50:23;8.77;;;3.20;;
22967;SDS011;11650;48.106;-1.696;2023-02-18T05:52:49;8.87;;;2.90;;
22967;SDS011;11650;48.106;-1.696;2023-02-18T05:55:14;6.20;;;2.60;;
22967;SDS011;11650;48.106;-1.696;2023-02-18T05:57:40;7.07;;;2.83;;
22967;SDS011;11650;48.106;-1.696;2023-02-18T06:00:06;6.43;;;2.70;;
22967;SDS011;11650;48.106;-1.696;2023-02-18T06:02:35;8.53;;;2.63;;
22967;SDS011;11650;48.106;-1.696;2023-02-18T06:05:01;6.13;;;2.50;;
22967;SDS011;11650;48.106;-1.696;2023-02-18T06:07:27;4.90;;;2.50;;
22967;SDS011;11650;48.106;-1.696;2023-02-18T06:09:53;7.83;;;2.90;;
22967;SDS011;11650;48.106;-1.696;2023-02-18T06:12:18;5.73;;;2.87;;
22967;SDS011;11650;48.106;-1.696;2023-02-18T06:14:44;9.73;;;2.50;;
22967;SDS011;11650;48.106;-1.696;2023-02-18T06:17:11;6.93;;;2.77;;
22967;SDS011;11650;48.106;-1.696;2023-02-18T06:19:37;11.90;;;2.33;;
22967;SDS011;11650;48.106;-1.696;2023-02-18T06:22:03;8.73;;;2.43;;
22967;SDS011;11650;48.106;-1.696;2023-02-18T06:24:29;7.03;;;2.60;;
22967;SDS011;11650;48.106;-1.696;2023-02-18T06:26:55;7.27;;;3.10;;
22967;SDS011;11650;48.106;-1.696;2023-02-18T06:29:20;9.23;;;3.43;;
22967;SDS011;11650;48.106;-1.696;2023-02-18T06:31:46;5.87;;;2.40;;
22967;SDS011;11650;48.106;-1.696;2023-02-18T06:34:12;8.20;;;2.60;;
22967;SDS011;11650;48.106;-1.696;2023-02-18T06:36:37;6.00;;;3.20;;
22967;SDS011;11650;48.106;-1.696;2023-02-18T06:39:04;3.80;;;2.20;;
22967;SDS011;11650;48.106;-1.696;2023-02-18T06:41:31;3.10;;;2.33;;
22967;SDS011;11650;48.106;-1.696;2023-02-18T06:43:56;7.30;;;3.03;;
22967;SDS011;11650;48.106;-1.696;2023-02-18T06:46:22;8.63;;;2.53;;
22967;SDS011;11650;48.106;-1.696;2023-02-18T06:48:48;5.53;;;2.47;;
22967;SDS011;11650;48.106;-1.696;2023-02-18T06:51:13;6.13;;;2.50;;
22967;SDS011;11650;48.106;-1.696;2023-02-18T06:53:40;5.37;;;2.30;;
22967;SDS011;11650;48.106;-1.696;2023-02-18T06:56:07;6.60;;;2.47;;
22967;SDS011;11650;48.106;-1.696;2023-02-18T06:58:33;5.73;;;2.40;;
22967;SDS011;11650;48.106;-1.696;2023-02-18T07:00:59;5.67;;;2.30;;
22967;SDS011;11650;48.106;-1.696;2023-02-18T07:03:25;6.27;;;2.20;;
22967;SDS011;11650;48.106;-1.696;2023-02-18T07:05:51;4.67;;;2.23;;
22967;SDS011;11650;48.106;-1.696;2023-02-18T07:08:16;4.43;;;2.10;;
22967;SDS011;11650;48.106;-1.696;2023-02-18T07:10:42;5.50;;;2.60;;
22967;SDS011;11650;48.106;-1.696;2023-02-18T07:13:08;6.77;;;2.43;;
22967;SDS011;11650;48.106;-1.696;2023-02-18T07:15:34;7.53;;;2.20;;
22967;SDS011;11650;48.106;-1.696;2023-02-18T07:17:59;7.10;;;2.50;;
22967;SDS011;11650;48.106;-1.696;2023-02-18T07:20:25;4.60;;;2.60;;
22967;SDS011;11650;48.106;-1.696;2023-02-18T07:22:51;4.90;;;2.20;;
22967;SDS011;11650;48.106;-1.696;2023-02-18T07:25:18;11.60;;;2.80;;
22967;SDS011;11650;48.106;-1.696;2023-02-18T07:27:44;7.03;;;2.60;;
22967;SDS011;11650;48.106;-1.696;2023-02-18T07:30:10;7.57;;;2.80;;
22967;SDS011;11650;48.106;-1.696;2023-02-18T07:32:36;6.60;;;2.90;;
22967;SDS011;11650;48.106;-1.696;2023-02-18T07:35:02;5.33;;;2.47;;
22967;SDS011;11650;48.106;-1.696;2023-02-18T07:37:28;6.13;;;2.43;;
22967;SDS011;11650;48.106;-1.696;2023-02-18T07:39:54;5.73;;;2.23;;
22967;SDS011;11650;48.106;-1.696;2023-02-18T07:42:19;4.53;;;2.20;;
22967;SDS011;11650;48.106;-1.696;2023-02-18T07:44:45;6.13;;;2.43;;
22967;SDS011;11650;48.106;-1.696;2023-02-18T07:47:12;6.63;;;2.47;;
22967;SDS011;11650;48.106;-1.696;2023-02-18T07:49:41;5.33;;;2.40;;
22967;SDS011;11650;48.106;-1.696;2023-02-18T07:52:06;5.13;;;2.40;;
22967;SDS011;11650;48.106;-1.696;2023-02-18T07:54:32;4.87;;;2.47;;
22967;SDS011;11650;48.106;-1.696;2023-02-18T07:56:58;6.07;;;2.43;;
22967;SDS011;11650;48.106;-1.696;2023-02-18T07:59:23;4.83;;;2.57;;
22967;SDS011;11650;48.106;-1.696;2023-02-18T08:01:49;5.27;;;2.87;;
22967;SDS011;11650;48.106;-1.696;2023-02-18T08:04:15;5.33;;;2.37;;
22967;SDS011;11650;48.106;-1.696;2023-02-18T08:06:44;3.67;;;1.83;;
22967;SDS011;11650;48.106;-1.696;2023-02-18T08:09:11;3.23;;;1.73;;
22967;SDS011;11650;48.106;-1.696;2023-02-18T08:11:37;5.20;;;1.63;;
22967;SDS011;11650;48.106;-1.696;2023-02-18T08:14:03;2.47;;;1.30;;
22967;SDS011;11650;48.106;-1.696;2023-02-18T08:16:29;5.03;;;1.60;;
22967;SDS011;11650;48.106;-1.696;2023-02-18T08:18:55;2.00;;;1.40;;
22967;SDS011;11650;48.106;-1.696;2023-02-18T08:21:22;4.00;;;1.53;;
22967;SDS011;11650;48.106;-1.696;2023-02-18T08:23:49;2.90;;;1.37;;
22967;SDS011;11650;48.106;-1.696;2023-02-18T08:26:15;2.57;;;1.57;;
22967;SDS011;11650;48.106;-1.696;2023-02-18T08:28:43;3.87;;;2.23;;
22967;SDS011;11650;48.106;-1.696;2023-02-18T08:31:16;5.57;;;1.90;;
22967;SDS011;11650;48.106;-1.696;2023-02-18T08:33:44;4.37;;;1.83;;
22967;SDS011;11650;48.106;-1.696;2023-02-18T08:36:09;5.13;;;2.33;;
22967;SDS011;11650;48.106;-1.696;2023-02-18T08:38:35;7.10;;;2.60;;
22967;SDS011;11650;48.106;-1.696;2023-02-18T08:41:02;4.93;;;2.63;;
22967;SDS011;11650;48.106;-1.696;2023-02-18T08:43:28;7.17;;;2.97;;
22967;SDS011;11650;48.106;-1.696;2023-02-18T08:45:55;8.10;;;3.57;;
22967;SDS011;11650;48.106;-1.696;2023-02-18T08:48:22;7.40;;;3.27;;
22967;SDS011;11650;48.106;-1.696;2023-02-18T08:50:48;7.03;;;3.67;;
22967;SDS011;11650;48.106;-1.696;2023-02-18T08:53:14;8.00;;;3.00;;
22967;SDS011;11650;48.106;-1.696;2023-02-18T08:55:40;6.53;;;3.07;;
22967;SDS011;11650;48.106;-1.696;2023-02-18T08:58:06;6.87;;;3.07;;
22967;SDS011;11650;48.106;-1.696;2023-02-18T09:00:32;7.33;;;3.37;;
22967;SDS011;11650;48.106;-1.696;2023-02-18T09:02:57;6.03;;;3.10;;
22967;SDS011;11650;48.106;-1.696;2023-02-18T09:05:23;6.87;;;3.27;;
22967;SDS011;11650;48.106;-1.696;2023-02-18T09:07:49;7.43;;;3.37;;
22967;SDS011;11650;48.106;-1.696;2023-02-18T09:10:15;5.00;;;2.40;;
22967;SDS011;11650;48.106;-1.696;2023-02-18T09:12:40;4.83;;;2.10;;
22967;SDS011;11650;48.106;-1.696;2023-02-18T09:15:06;5.63;;;1.97;;
22967;SDS011;11650;48.106;-1.696;2023-02-18T09:17:32;4.63;;;1.93;;
22967;SDS011;11650;48.106;-1.696;2023-02-18T09:19:58;3.73;;;1.70;;
22967;SDS011;11650;48.106;-1.696;2023-02-18T09:22:24;3.53;;;1.57;;
22967;SDS011;11650;48.106;-1.696;2023-02-18T09:24:49;4.67;;;2.10;;
22967;SDS011;11650;48.106;-1.696;2023-02-18T09:27:15;4.20;;;1.40;;
22967;SDS011;11650;48.106;-1.696;2023-02-18T09:29:41;3.67;;;1.43;;
22967;SDS011;11650;48.106;-1.696;2023-02-18T09:32:07;3.93;;;1.40;;
22967;SDS011;11650;48.106;-1.696;2023-02-18T09:34:34;4.80;;;1.60;;
22967;SDS011;11650;48.106;-1.696;2023-02-18T09:37:00;2.83;;;1.60;;
22967;SDS011;11650;48.106;-1.696;2023-02-18T09:39:26;3.50;;;1.73;;
22967;SDS011;11650;48.106;-1.696;2023-02-18T09:41:55;4.03;;;1.57;;
22967;SDS011;11650;48.106;-1.696;2023-02-18T09:44:27;2.20;;;1.60;;
22967;SDS011;11650;48.106;-1.696;2023-02-18T09:47:02;4.37;;;1.63;;
22967;SDS011;11650;48.106;-1.696;2023-02-18T09:49:34;5.40;;;1.77;;
22967;SDS011;11650;48.106;-1.696;2023-02-18T09:52:15;4.07;;;2.07;;
22967;SDS011;11650;48.106;-1.696;2023-02-18T09:54:56;3.73;;;2.00;;
22967;SDS011;11650;48.106;-1.696;2023-02-18T09:57:29;6.10;;;2.13;;
22967;SDS011;11650;48.106;-1.696;2023-02-18T10:00:13;3.77;;;1.80;;
22967;SDS011;11650;48.106;-1.696;2023-02-18T10:02:52;4.63;;;1.80;;
22967;SDS011;11650;48.106;-1.696;2023-02-18T10:05:19;4.43;;;1.87;;
22967;SDS011;11650;48.106;-1.696;2023-02-18T10:07:46;2.70;;;1.50;;
22967;SDS011;11650;48.106;-1.696;2023-02-18T10:10:20;5.40;;;1.80;;
22967;SDS011;11650;48.106;-1.696;2023-02-18T10:13:18;4.73;;;1.73;;
22967;SDS011;11650;48.106;-1.696;2023-02-18T10:15:45;3.90;;;1.70;;
22967;SDS011;11650;48.106;-1.696;2023-02-18T10:20:52;3.43;;;1.60;;
22967;SDS011;11650;48.106;-1.696;2023-02-18T10:23:21;2.93;;;1.30;;
22967;SDS011;11650;48.106;-1.696;2023-02-18T10:25:48;2.17;;;1.50;;
22967;SDS011;11650;48.106;-1.696;2023-02-18T10:28:15;2.57;;;1.23;;
22967;SDS011;11650;48.106;-1.696;2023-02-18T10:30:46;5.63;;;1.50;;
22967;SDS011;11650;48.106;-1.696;2023-02-18T10:41:03;6.77;;;1.60;;
22967;SDS011;11650;48.106;-1.696;2023-02-18T10:52:02;4.23;;;1.47;;
22967;SDS011;11650;48.106;-1.696;2023-02-18T10:54:50;4.27;;;1.30;;
22967;SDS011;11650;48.106;-1.696;2023-02-18T10:57:17;5.37;;;1.37;;
22967;SDS011;11650;48.106;-1.696;2023-02-18T11:02:35;4.77;;;1.20;;
22967;SDS011;11650;48.106;-1.696;2023-02-18T11:05:05;4.10;;;1.20;;
22967;SDS011;11650;48.106;-1.696;2023-02-18T11:07:44;3.40;;;1.03;;
22967;SDS011;11650;48.106;-1.696;2023-02-18T11:10:18;5.17;;;1.03;;
22967;SDS011;11650;48.106;-1.696;2023-02-18T11:12:50;4.17;;;1.10;;
22967;SDS011;11650;48.106;-1.696;2023-02-18T11:15:23;2.70;;;1.20;;
22967;SDS011;11650;48.106;-1.696;2023-02-18T11:17:50;6.60;;;1.53;;
22967;SDS011;11650;48.106;-1.696;2023-02-18T11:25:35;5.77;;;1.73;;
22967;SDS011;11650;48.106;-1.696;2023-02-18T11:28:04;7.57;;;1.40;;
22967;SDS011;11650;48.106;-1.696;2023-02-18T11:30:50;4.57;;;1.33;;
22967;SDS011;11650;48.106;-1.696;2023-02-18T11:33:22;4.60;;;1.63;;
22967;SDS011;11650;48.106;-1.696;2023-02-18T11:35:56;7.13;;;1.47;;
22967;SDS011;11650;48.106;-1.696;2023-02-18T11:41:14;4.63;;;1.50;;
22967;SDS011;11650;48.106;-1.696;2023-02-18T11:44:15;4.33;;;1.20;;
22967;SDS011;11650;48.106;-1.696;2023-02-18T11:49:40;4.13;;;1.40;;
22967;SDS011;11650;48.106;-1.696;2023-02-18T11:57:32;4.70;;;1.40;;
22967;SDS011;11650;48.106;-1.696;2023-02-18T12:00:00;10.70;;;1.47;;
22967;SDS011;11650;48.106;-1.696;2023-02-18T12:13:07;5.60;;;1.50;;
22967;SDS011;11650;48.106;-1.696;2023-02-18T12:33:44;8.10;;;1.73;;
22967;SDS011;11650;48.106;-1.696;2023-02-18T12:36:48;6.30;;;1.77;;
22967;SDS011;11650;48.106;-1.696;2023-02-18T12:39:38;3.27;;;1.40;;
22967;SDS011;11650;48.106;-1.696;2023-02-18T12:42:39;5.13;;;1.57;;
22967;SDS011;11650;48.106;-1.696;2023-02-18T12:56:34;4.10;;;1.37;;
22967;SDS011;11650;48.106;-1.696;2023-02-18T12:59:13;7.53;;;1.80;;
22967;SDS011;11650;48.106;-1.696;2023-02-18T13:10:05;5.60;;;1.70;;
22967;SDS011;11650;48.106;-1.696;2023-02-18T13:12:38;4.90;;;1.50;;
22967;SDS011;11650;48.106;-1.696;2023-02-18T13:17:59;4.83;;;1.73;;
22967;SDS011;11650;48.106;-1.696;2023-02-18T13:20:38;5.43;;;2.00;;
22967;SDS011;11650;48.106;-1.696;2023-02-18T13:23:05;5.93;;;1.97;;
22967;SDS011;11650;48.106;-1.696;2023-02-18T13:25:36;5.63;;;1.87;;
22967;SDS011;11650;48.106;-1.696;2023-02-18T13:28:06;8.60;;;1.90;;
22967;SDS011;11650;48.106;-1.696;2023-02-18T13:36:09;9.17;;;2.10;;
22967;SDS011;11650;48.106;-1.696;2023-02-18T13:39:08;3.77;;;1.63;;
22967;SDS011;11650;48.106;-1.696;2023-02-18T13:41:43;10.10;;;2.20;;
22967;SDS011;11650;48.106;-1.696;2023-02-18T13:49:13;3.80;;;1.60;;
22967;SDS011;11650;48.106;-1.696;2023-02-18T13:51:46;5.37;;;2.00;;
22967;SDS011;11650;48.106;-1.696;2023-02-18T13:54:23;6.47;;;1.80;;
22967;SDS011;11650;48.106;-1.696;2023-02-18T13:57:02;7.03;;;2.07;;
22967;SDS011;11650;48.106;-1.696;2023-02-18T14:02:29;4.47;;;1.60;;
22967;SDS011;11650;48.106;-1.696;2023-02-18T14:04:55;7.20;;;1.93;;
22967;SDS011;11650;48.106;-1.696;2023-02-18T14:07:45;9.03;;;2.00;;
22967;SDS011;11650;48.106;-1.696;2023-02-18T14:18:25;7.13;;;1.87;;
22967;SDS011;11650;48.106;-1.696;2023-02-18T14:21:17;7.87;;;1.70;;
22967;SDS011;11650;48.106;-1.696;2023-02-18T14:23:42;6.90;;;1.70;;
22967;SDS011;11650;48.106;-1.696;2023-02-18T14:26:24;7.23;;;1.70;;
22967;SDS011;11650;48.106;-1.696;2023-02-18T14:28:54;6.97;;;1.73;;
22967;SDS011;11650;48.106;-1.696;2023-02-18T14:50:09;4.63;;;1.63;;
22967;SDS011;11650;48.106;-1.696;2023-02-18T14:55:15;8.17;;;1.77;;
22967;SDS011;11650;48.106;-1.696;2023-02-18T15:00:45;7.57;;;1.80;;
22967;SDS011;11650;48.106;-1.696;2023-02-18T15:03:14;10.17;;;2.00;;
22967;SDS011;11650;48.106;-1.696;2023-02-18T15:05:43;7.27;;;1.80;;
22967;SDS011;11650;48.106;-1.696;2023-02-18T15:08:16;6.30;;;2.07;;
22967;SDS011;11650;48.106;-1.696;2023-02-18T15:16:01;7.13;;;2.30;;
22967;SDS011;11650;48.106;-1.696;2023-02-18T15:21:00;8.23;;;2.70;;
22967;SDS011;11650;48.106;-1.696;2023-02-18T15:23:28;7.73;;;2.37;;
22967;SDS011;11650;48.106;-1.696;2023-02-18T15:25:54;9.17;;;2.60;;
22967;SDS011;11650;48.106;-1.696;2023-02-18T15:28:21;9.33;;;2.50;;
22967;SDS011;11650;48.106;-1.696;2023-02-18T15:30:49;8.60;;;2.67;;
22967;SDS011;11650;48.106;-1.696;2023-02-18T15:33:16;6.00;;;2.20;;
22967;SDS011;11650;48.106;-1.696;2023-02-18T15:35:44;12.97;;;2.60;;
22967;SDS011;11650;48.106;-1.696;2023-02-18T15:38:14;10.23;;;2.43;;
22967;SDS011;11650;48.106;-1.696;2023-02-18T15:40:43;9.87;;;2.50;;
22967;SDS011;11650;48.106;-1.696;2023-02-18T15:43:17;6.67;;;2.30;;
22967;SDS011;11650;48.106;-1.696;2023-02-18T15:45:49;8.37;;;2.30;;
22967;SDS011;11650;48.106;-1.696;2023-02-18T15:48:21;6.17;;;2.07;;
22967;SDS011;11650;48.106;-1.696;2023-02-18T15:50:55;7.37;;;2.03;;
22967;SDS011;11650;48.106;-1.696;2023-02-18T15:53:22;8.93;;;1.87;;
22967;SDS011;11650;48.106;-1.696;2023-02-18T15:55:49;5.83;;;1.87;;
22967;SDS011;11650;48.106;-1.696;2023-02-18T15:58:30;10.17;;;2.30;;
22967;SDS011;11650;48.106;-1.696;2023-02-18T16:00:58;8.90;;;2.50;;
22967;SDS011;11650;48.106;-1.696;2023-02-18T16:08:37;6.77;;;2.07;;
22967;SDS011;11650;48.106;-1.696;2023-02-18T16:11:06;6.30;;;2.07;;
22967;SDS011;11650;48.106;-1.696;2023-02-18T16:13:36;10.50;;;2.33;;
22967;SDS011;11650;48.106;-1.696;2023-02-18T16:16:17;8.90;;;2.60;;
22967;SDS011;11650;48.106;-1.696;2023-02-18T16:18:48;6.10;;;2.50;;
22967;SDS011;11650;48.106;-1.696;2023-02-18T16:23:43;7.87;;;2.53;;
22967;SDS011;11650;48.106;-1.696;2023-02-18T16:26:22;8.57;;;3.07;;
22967;SDS011;11650;48.106;-1.696;2023-02-18T16:28:51;6.70;;;2.83;;
22967;SDS011;11650;48.106;-1.696;2023-02-18T16:31:18;9.43;;;2.43;;
22967;SDS011;11650;48.106;-1.696;2023-02-18T16:33:45;8.33;;;2.43;;
22967;SDS011;11650;48.106;-1.696;2023-02-18T16:36:12;8.17;;;2.37;;
22967;SDS011;11650;48.106;-1.696;2023-02-18T16:38:43;10.07;;;2.70;;
22967;SDS011;11650;48.106;-1.696;2023-02-18T16:41:12;5.73;;;2.17;;
22967;SDS011;11650;48.106;-1.696;2023-02-18T16:43:38;8.47;;;2.33;;
22967;SDS011;11650;48.106;-1.696;2023-02-18T16:46:11;8.80;;;2.13;;
22967;SDS011;11650;48.106;-1.696;2023-02-18T16:48:44;8.60;;;2.30;;
22967;SDS011;11650;48.106;-1.696;2023-02-18T16:53:44;9.43;;;2.33;;
22967;SDS011;11650;48.106;-1.696;2023-02-18T16:56:14;8.93;;;2.37;;
22967;SDS011;11650;48.106;-1.696;2023-02-18T16:58:41;8.07;;;2.50;;
22967;SDS011;11650;48.106;-1.696;2023-02-18T17:01:10;8.33;;;2.50;;
22967;SDS011;11650;48.106;-1.696;2023-02-18T17:03:54;7.47;;;3.23;;
22967;SDS011;11650;48.106;-1.696;2023-02-18T17:06:21;8.37;;;3.30;;
22967;SDS011;11650;48.106;-1.696;2023-02-18T17:08:47;14.83;;;5.20;;
22967;SDS011;11650;48.106;-1.696;2023-02-18T17:11:15;15.90;;;6.23;;
22967;SDS011;11650;48.106;-1.696;2023-02-18T17:13:57;13.07;;;5.10;;
22967;SDS011;11650;48.106;-1.696;2023-02-18T17:16:23;13.63;;;4.83;;
22967;SDS011;11650;48.106;-1.696;2023-02-18T17:18:50;12.30;;;4.60;;
22967;SDS011;11650;48.106;-1.696;2023-02-18T17:21:20;10.50;;;4.07;;
22967;SDS011;11650;48.106;-1.696;2023-02-18T17:23:49;13.00;;;3.93;;
22967;SDS011;11650;48.106;-1.696;2023-02-18T17:26:22;11.00;;;3.90;;
22967;SDS011;11650;48.106;-1.696;2023-02-18T17:28:50;8.87;;;4.40;;
22967;SDS011;11650;48.106;-1.696;2023-02-18T17:31:17;11.50;;;4.10;;
22967;SDS011;11650;48.106;-1.696;2023-02-18T17:33:47;11.20;;;4.13;;
22967;SDS011;11650;48.106;-1.696;2023-02-18T17:36:13;12.90;;;3.97;;
22967;SDS011;11650;48.106;-1.696;2023-02-18T17:38:38;7.90;;;2.87;;
22967;SDS011;11650;48.106;-1.696;2023-02-18T17:41:05;8.57;;;3.10;;
22967;SDS011;11650;48.106;-1.696;2023-02-18T17:43:31;8.63;;;2.90;;
22967;SDS011;11650;48.106;-1.696;2023-02-18T17:45:57;9.43;;;2.87;;
22967;SDS011;11650;48.106;-1.696;2023-02-18T17:48:23;6.47;;;2.60;;
22967;SDS011;11650;48.106;-1.696;2023-02-18T17:50:49;12.33;;;3.00;;
22967;SDS011;11650;48.106;-1.696;2023-02-18T17:53:16;8.40;;;3.60;;
22967;SDS011;11650;48.106;-1.696;2023-02-18T17:55:43;15.37;;;4.97;;
22967;SDS011;11650;48.106;-1.696;2023-02-18T17:58:10;11.37;;;5.13;;
22967;SDS011;11650;48.106;-1.696;2023-02-18T18:00:38;13.70;;;4.30;;
22967;SDS011;11650;48.106;-1.696;2023-02-18T18:03:10;6.87;;;3.63;;